Time;durP1;ratioP1;P1;durP2;ratioP2;P2;SDS_P1;SDS_P2;PMS_P1;PMS_P2;Temp;Humidity;BMP_temperature;BMP_pressure;BME280_temperature;BME280_humidity;BME280_pressure;Samples;Min_cycle;Max_cycle;Signal;HPM_P1;HPM_P2
2022/04/29 00:01:12;;;;;;;;;;;14.40;90.70;;;;;;4361069;32;42781;-80
2022/04/29 00:03:42;;;;;;;;;;;14.30;90.60;;;;;;4361429;32;44204;-81
2022/04/29 00:06:13;;;;;;;;;;;14.40;90.50;;;;;;4361416;32;43999;-81
2022/04/29 00:08:40;;;;;;;;;;;14.30;90.50;;;;;;4348063;32;44478;-80
2022/04/29 00:11:13;;;;;;;;;;;14.30;90.70;;;;;;4361213;32;43088;-80
2022/04/29 00:13:48;;;;;;;;;;;14.30;90.70;;;;;;4361968;32;20385;-81
2022/04/29 00:16:25;;;;;;;;;;;14.30;90.70;;;;;;4361179;32;43893;-81
2022/04/29 00:19:00;;;;;;;;;;;14.30;90.70;;;;;;4361334;32;43274;-80
2022/04/29 00:21:27;;;;;;;;;;;14.20;90.70;;;;;;4360833;32;43094;-81
2022/04/29 00:23:59;;;;;;;;;;;14.20;90.60;;;;;;4360704;32;41893;-80
2022/04/29 00:26:32;;;;;;;;;;;14.30;90.70;;;;;;4361190;32;43235;-80
2022/04/29 00:29:04;;;;;;;;;;;14.20;90.70;;;;;;4347278;32;42523;-80
2022/04/29 00:31:38;;;;;;;;;;;14.20;90.70;;;;;;4361035;32;44339;-80
2022/04/29 00:34:11;;;;;;;;;;;14.20;90.70;;;;;;4361047;32;44251;-81
2022/04/29 00:36:43;;;;;;;;;;;14.20;90.90;;;;;;4361038;32;45223;-80
2022/04/29 00:39:15;;;;;;;;;;;14.20;90.80;;;;;;4347862;32;44106;-81
2022/04/29 00:41:48;;;;;;;;;;;14.10;90.90;;;;;;4347698;32;43174;-81
2022/04/29 00:44:16;;;;;;;;;;;14.10;90.80;;;;;;4361812;32;19997;-81
2022/04/29 00:46:50;;;;;;;;;;;14.10;90.80;;;;;;4347615;32;43982;-81
2022/04/29 00:49:23;;;;;;;;;;;14.10;90.80;;;;;;4360844;32;43841;-81
2022/04/29 00:51:59;;;;;;;;;;;14.00;90.80;;;;;;4360356;32;43018;-81
2022/04/29 00:54:39;;;;;;;;;;;14.00;90.80;;;;;;4346856;32;44173;-81
2022/04/29 00:57:22;;;;;;;;;;;14.00;90.90;;;;;;4360732;32;44121;-81
2022/04/29 00:59:59;;;;;;;;;;;14.00;90.80;;;;;;4360819;32;43906;-81
2022/04/29 01:02:35;;;;;;;;;;;14.00;90.80;;;;;;4347154;32;44018;-81
2022/04/29 01:05:11;;;;;;;;;;;14.00;90.90;;;;;;4346847;32;43261;-81
2022/04/29 01:07:50;;;;;;;;;;;14.00;91.00;;;;;;4360082;32;42616;-81
2022/04/29 01:10:23;;;;;;;;;;;14.00;91.10;;;;;;4346334;32;44193;-81
2022/04/29 01:12:59;;;;;;;;;;;14.00;91.00;;;;;;4346993;32;42731;-81
2022/04/29 01:15:27;;;;;;;;;;;14.00;90.90;;;;;;4360673;32;43951;-81
2022/04/29 01:18:00;;;;;;;;;;;13.90;90.80;;;;;;4360393;32;43749;-81
2022/04/29 01:20:31;;;;;;;;;;;13.90;90.90;;;;;;4347120;32;43985;-81
2022/04/29 01:22:58;;;;;;;;;;;13.90;90.90;;;;;;4360058;32;42884;-81
2022/04/29 01:25:31;;;;;;;;;;;13.90;91.10;;;;;;4360109;32;43004;-81
2022/04/29 01:28:04;;;;;;;;;;;13.90;91.10;;;;;;4347154;32;43194;-81
2022/04/29 01:30:39;;;;;;;;;;;13.90;91.00;;;;;;4360235;32;44290;-81
2022/04/29 01:33:13;;;;;;;;;;;13.80;91.00;;;;;;4347318;32;44071;-81
2022/04/29 01:35:46;;;;;;;;;;;13.80;91.10;;;;;;4360249;32;44253;-81
2022/04/29 01:38:22;;;;;;;;;;;13.80;91.10;;;;;;4346799;32;42769;-81
2022/04/29 01:40:55;;;;;;;;;;;13.80;91.10;;;;;;4347056;32;42662;-81
2022/04/29 01:43:27;;;;;;;;;;;13.80;91.10;;;;;;4346819;32;44330;-81
2022/04/29 01:46:03;;;;;;;;;;;13.80;91.10;;;;;;4360713;32;20001;-81
2022/04/29 01:48:38;;;;;;;;;;;13.80;91.20;;;;;;4346584;32;42918;-81
2022/04/29 01:51:10;;;;;;;;;;;13.80;91.20;;;;;;4360097;32;43614;-81
2022/04/29 01:53:53;;;;;;;;;;;13.80;91.20;;;;;;4359646;33;42964;-81
2022/04/29 01:56:32;;;;;;;;;;;13.70;91.20;;;;;;4360215;33;44219;-81
2022/04/29 01:59:05;;;;;;;;;;;13.70;91.20;;;;;;4360213;33;44273;-81
2022/04/29 02:01:34;;;;;;;;;;;13.70;91.50;;;;;;4346129;33;43494;-81
2022/04/29 02:04:10;;;;;;;;;;;13.70;91.30;;;;;;4346140;33;44261;-81
2022/04/29 02:06:45;;;;;;;;;;;13.60;91.30;;;;;;4360272;33;43916;-81
2022/04/29 02:09:20;;;;;;;;;;;13.70;91.30;;;;;;4359543;33;42993;-81
2022/04/29 02:12:06;;;;;;;;;;;13.60;91.30;;;;;;4346750;33;44559;-81
2022/04/29 02:14:38;;;;;;;;;;;13.60;91.30;;;;;;4346688;33;43779;-81
2022/04/29 02:17:16;;;;;;;;;;;13.60;91.30;;;;;;4346349;33;44215;-81
2022/04/29 02:19:49;;;;;;;;;;;13.60;91.30;;;;;;4359921;33;44264;-81
2022/04/29 02:22:19;;;;;;;;;;;13.60;91.40;;;;;;4347398;32;42489;-81
2022/04/29 02:24:55;;;;;;;;;;;13.60;91.50;;;;;;4349629;32;43903;-81
2022/04/29 02:27:30;;;;;;;;;;;13.60;91.50;;;;;;4349321;32;43924;-81
2022/04/29 02:30:03;;;;;;;;;;;13.60;91.50;;;;;;4362856;32;43175;-81
2022/04/29 02:32:33;;;;;;;;;;;13.50;91.50;;;;;;4362893;32;43562;-81
2022/04/29 02:35:03;;;;;;;;;;;13.50;91.50;;;;;;4362250;32;43949;-81
2022/04/29 02:37:36;;;;;;;;;;;13.50;91.40;;;;;;4362576;32;42953;-80
2022/04/29 02:40:04;;;;;;;;;;;13.50;91.40;;;;;;4348984;32;42984;-81
2022/04/29 02:42:40;;;;;;;;;;;13.50;91.50;;;;;;4362441;32;42601;-80
2022/04/29 02:45:09;;;;;;;;;;;13.50;91.60;;;;;;4362602;32;43904;-81
2022/04/29 02:47:39;;;;;;;;;;;13.50;91.60;;;;;;4349922;32;20122;-80
2022/04/29 02:50:12;;;;;;;;;;;13.50;91.70;;;;;;4349317;32;42906;-81
2022/04/29 02:52:48;;;;;;;;;;;13.40;92.10;;;;;;4348733;32;44130;-80
2022/04/29 02:55:18;;;;;;;;;;;13.40;92.20;;;;;;4362080;32;43766;-80
2022/04/29 02:57:54;;;;;;;;;;;13.40;91.90;;;;;;4362263;32;44620;-81
2022/04/29 03:00:30;;;;;;;;;;;13.40;92.00;;;;;;4349088;32;44217;-81
2022/04/29 03:03:05;;;;;;;;;;;13.40;92.00;;;;;;4361969;32;44266;-81
2022/04/29 03:05:35;;;;;;;;;;;13.40;92.10;;;;;;4362478;32;43885;-81
2022/04/29 03:08:07;;;;;;;;;;;13.30;92.10;;;;;;4348762;32;43611;-80
2022/04/29 03:10:43;;;;;;;;;;;13.30;92.20;;;;;;4348882;32;43976;-80
2022/04/29 03:13:18;;;;;;;;;;;13.30;92.20;;;;;;4348265;32;42618;-80
2022/04/29 03:15:51;;;;;;;;;;;13.40;92.20;;;;;;4362016;32;45988;-80
2022/04/29 03:18:23;;;;;;;;;;;13.40;92.20;;;;;;4363316;32;20035;-80
2022/04/29 03:20:56;;;;;;;;;;;13.30;92.20;;;;;;4348256;32;43840;-80
2022/04/29 03:23:29;;;;;;;;;;;13.30;92.30;;;;;;4361545;32;43023;-81
2022/04/29 03:25:59;;;;;;;;;;;13.30;92.40;;;;;;4362047;32;43947;-81
2022/04/29 03:28:35;;;;;;;;;;;13.30;92.40;;;;;;4348489;32;44207;-81
2022/04/29 03:31:02;;;;;;;;;;;13.30;92.40;;;;;;4348283;32;43963;-81
2022/04/29 03:33:44;;;;;;;;;;;13.30;92.40;;;;;;4361500;32;44106;-80
2022/04/29 03:36:17;;;;;;;;;;;13.30;92.50;;;;;;4348556;32;44088;-80
2022/04/29 03:38:54;;;;;;;;;;;13.30;92.50;;;;;;4361622;32;42860;-80
2022/04/29 03:41:26;;;;;;;;;;;13.20;92.60;;;;;;4348509;32;43322;-81
2022/04/29 03:43:59;;;;;;;;;;;13.20;92.60;;;;;;4348239;32;43451;-80
2022/04/29 03:46:31;;;;;;;;;;;13.20;92.60;;;;;;4361203;32;44007;-80
2022/04/29 03:51:51;;;;;;;;;;;13.20;92.60;;;;;;4361609;32;44560;-80
2022/04/29 03:54:24;;;;;;;;;;;13.30;92.70;;;;;;4347898;32;43931;-80
2022/04/29 03:56:57;;;;;;;;;;;13.20;92.80;;;;;;4348251;32;43869;-80
2022/04/29 03:59:31;;;;;;;;;;;13.20;92.70;;;;;;4348174;32;42647;-80
2022/04/29 04:01:59;;;;;;;;;;;13.20;92.80;;;;;;4361280;32;45708;-80
2022/04/29 04:04:31;;;;;;;;;;;13.20;92.90;;;;;;4360889;32;45798;-80
2022/04/29 04:07:04;;;;;;;;;;;13.10;92.90;;;;;;4348059;32;42527;-80
2022/04/29 04:09:37;;;;;;;;;;;13.20;92.90;;;;;;4361358;32;43178;-81
2022/04/29 04:12:16;;;;;;;;;;;13.10;93.00;;;;;;4348090;32;44684;-80
2022/04/29 04:14:50;;;;;;;;;;;13.10;93.00;;;;;;4361545;32;43410;-80
2022/04/29 04:17:25;;;;;;;;;;;13.10;93.10;;;;;;4348138;32;43255;-80
2022/04/29 04:20:04;;;;;;;;;;;13.10;93.20;;;;;;4349020;32;20386;-80
2022/04/29 04:22:42;;;;;;;;;;;13.10;93.10;;;;;;4347773;32;44553;-80
2022/04/29 04:25:12;;;;;;;;;;;13.10;93.30;;;;;;4347403;32;43758;-81
2022/04/29 04:27:47;;;;;;;;;;;13.10;93.20;;;;;;4347342;32;43805;-81
2022/04/29 04:30:19;;;;;;;;;;;13.10;93.40;;;;;;4360783;32;42986;-81
2022/04/29 04:32:54;;;;;;;;;;;13.10;93.30;;;;;;4361152;32;44261;-80
2022/04/29 04:35:27;;;;;;;;;;;13.10;93.40;;;;;;4347728;32;44101;-80
2022/04/29 04:38:03;;;;;;;;;;;13.10;93.50;;;;;;4347471;32;42798;-80
2022/04/29 04:40:38;;;;;;;;;;;13.10;93.50;;;;;;4347716;32;42353;-81
2022/04/29 04:43:11;;;;;;;;;;;13.00;93.90;;;;;;4347478;32;42784;-81
2022/04/29 04:45:42;;;;;;;;;;;13.00;93.50;;;;;;4359768;32;42485;-80
2022/04/29 04:48:14;;;;;;;;;;;13.00;93.60;;;;;;4347501;32;43335;-80
2022/04/29 04:50:42;;;;;;;;;;;13.00;93.60;;;;;;4348103;32;20102;-80
2022/04/29 04:53:14;;;;;;;;;;;13.00;93.70;;;;;;4360166;32;44557;-81
2022/04/29 04:55:47;;;;;;;;;;;13.00;93.70;;;;;;4348050;32;44264;-81
2022/04/29 04:58:19;;;;;;;;;;;13.00;93.80;;;;;;4360777;32;43072;-80
2022/04/29 05:00:52;;;;;;;;;;;13.00;93.90;;;;;;4347389;32;43478;-80
2022/04/29 05:03:30;;;;;;;;;;;13.00;93.80;;;;;;4360091;32;43363;-80
2022/04/29 05:06:00;;;;;;;;;;;13.00;93.90;;;;;;4360476;32;44656;-80
2022/04/29 05:08:34;;;;;;;;;;;13.00;93.90;;;;;;4360712;32;43256;-81
2022/04/29 05:11:12;;;;;;;;;;;13.00;93.90;;;;;;4360325;32;43772;-80
2022/04/29 05:13:48;;;;;;;;;;;13.00;94.00;;;;;;4360459;32;42952;-80
2022/04/29 05:16:23;;;;;;;;;;;13.00;93.90;;;;;;4360424;32;44196;-81
2022/04/29 05:18:59;;;;;;;;;;;12.90;94.00;;;;;;4346924;32;45021;-80
2022/04/29 05:21:29;;;;;;;;;;;13.00;94.00;;;;;;4361186;32;20001;-80
2022/04/29 05:23:58;;;;;;;;;;;12.90;94.20;;;;;;4360577;32;43868;-80
2022/04/29 05:26:31;;;;;;;;;;;12.90;94.40;;;;;;4346807;32;43050;-80
2022/04/29 05:29:07;;;;;;;;;;;12.90;94.40;;;;;;4360423;32;39530;-80
2022/04/29 05:31:43;;;;;;;;;;;12.90;94.40;;;;;;4360466;32;44287;-80
2022/04/29 05:34:15;;;;;;;;;;;12.90;94.50;;;;;;4346419;32;44262;-80
2022/04/29 05:36:54;;;;;;;;;;;12.90;94.50;;;;;;4346789;32;42628;-80
2022/04/29 05:42:21;;;;;;;;;;;12.90;94.60;;;;;;4360392;32;43357;-80
2022/04/29 05:44:54;;;;;;;;;;;12.90;94.60;;;;;;4346303;32;43493;-80
2022/04/29 05:47:30;;;;;;;;;;;12.90;94.80;;;;;;4359686;32;43434;-80
2022/04/29 05:49:58;;;;;;;;;;;12.90;94.90;;;;;;4360120;32;42903;-80
2022/04/29 05:52:27;;;;;;;;;;;12.80;94.90;;;;;;4359597;32;44632;-80
2022/04/29 05:54:57;;;;;;;;;;;12.80;94.90;;;;;;4359989;33;44434;-80
2022/04/29 05:57:30;;;;;;;;;;;12.80;94.90;;;;;;4349633;32;43186;-80
2022/04/29 06:00:03;;;;;;;;;;;12.90;94.90;;;;;;4351609;32;43381;-80
2022/04/29 06:02:38;;;;;;;;;;;12.80;95.00;;;;;;4364637;32;44149;-80
2022/04/29 06:05:08;;;;;;;;;;;12.80;95.10;;;;;;4351169;32;43379;-80
2022/04/29 06:07:43;;;;;;;;;;;12.80;95.10;;;;;;4351073;32;43594;-80
2022/04/29 06:10:15;;;;;;;;;;;12.80;95.20;;;;;;4365053;32;44254;-80
2022/04/29 06:12:48;;;;;;;;;;;12.80;95.20;;;;;;4364867;32;44271;-80
2022/04/29 06:15:18;;;;;;;;;;;12.80;95.30;;;;;;4351859;32;43485;-80
2022/04/29 06:17:48;;;;;;;;;;;12.80;95.40;;;;;;4364783;32;42660;-80
2022/04/29 06:20:18;;;;;;;;;;;12.80;95.40;;;;;;4351310;32;43038;-80
2022/04/29 06:22:54;;;;;;;;;;;12.80;95.40;;;;;;4365745;32;20401;-80
2022/04/29 06:25:29;;;;;;;;;;;12.80;95.60;;;;;;4364806;32;42038;-80
2022/04/29 06:28:02;;;;;;;;;;;12.90;95.60;;;;;;4351203;32;42344;-80
2022/04/29 06:30:34;;;;;;;;;;;12.80;95.40;;;;;;4351334;32;42890;-80
2022/04/29 06:33:27;;;;;;;;;;;12.80;95.60;;;;;;4353457;32;42803;-80
2022/04/29 06:35:57;;;;;;;;;;;12.80;95.50;;;;;;4364756;32;43535;-80
2022/04/29 06:38:30;;;;;;;;;;;12.80;95.60;;;;;;4364235;32;43190;-80
2022/04/29 06:41:04;;;;;;;;;;;12.80;95.40;;;;;;4364766;32;43875;-80
2022/04/29 06:43:34;;;;;;;;;;;12.80;95.60;;;;;;4364947;32;43985;-80
2022/04/29 06:46:04;;;;;;;;;;;12.80;95.60;;;;;;4364669;32;43730;-80
2022/04/29 06:48:38;;;;;;;;;;;12.80;95.70;;;;;;4364225;32;44103;-80
2022/04/29 06:51:08;;;;;;;;;;;12.80;95.70;;;;;;4351120;32;42800;-80
2022/04/29 06:53:47;;;;;;;;;;;12.80;95.70;;;;;;4365328;32;19994;-80
2022/04/29 06:56:20;;;;;;;;;;;12.80;95.60;;;;;;4364744;32;44245;-80
2022/04/29 06:58:53;;;;;;;;;;;12.80;95.50;;;;;;4351262;32;43816;-80
2022/04/29 07:01:23;;;;;;;;;;;12.80;95.70;;;;;;4350831;32;45098;-80
2022/04/29 07:03:59;;;;;;;;;;;12.80;95.80;;;;;;4351296;32;44032;-80
2022/04/29 07:06:27;;;;;;;;;;;12.80;96.10;;;;;;4351128;32;44818;-80
2022/04/29 07:08:54;;;;;;;;;;;12.80;95.80;;;;;;4361982;32;44769;-80
2022/04/29 07:11:29;;;;;;;;;;;12.80;95.90;;;;;;4361665;32;44070;-80
2022/04/29 07:14:00;;;;;;;;;;;12.80;95.90;;;;;;4361874;32;43482;-80
2022/04/29 07:16:34;;;;;;;;;;;12.80;96.00;;;;;;4362065;32;44379;-80
2022/04/29 07:19:11;;;;;;;;;;;12.80;96.00;;;;;;4361998;32;42792;-80
2022/04/29 07:21:43;;;;;;;;;;;12.80;96.20;;;;;;4348692;32;44204;-80
2022/04/29 07:24:13;;;;;;;;;;;12.80;95.90;;;;;;4362596;32;20413;-80
2022/04/29 07:26:50;;;;;;;;;;;12.80;95.80;;;;;;4362129;32;43524;-80
2022/04/29 07:29:17;;;;;;;;;;;12.80;95.70;;;;;;4348547;32;43649;-80
2022/04/29 07:31:53;;;;;;;;;;;12.80;95.60;;;;;;4361830;32;44954;-80
2022/04/29 07:41:44;;;;;;;;;;;12.80;95.90;;;;;;4361998;32;43295;-80
2022/04/29 07:42:54;;;;;;;;;;;12.80;96.10;;;;;;4361282;32;43617;-80
2022/04/29 07:45:24;;;;;;;;;;;12.80;96.20;;;;;;4348325;32;44565;-80
2022/04/29 07:48:00;;;;;;;;;;;12.80;96.60;;;;;;4361751;32;44074;-80
2022/04/29 07:50:33;;;;;;;;;;;12.90;96.70;;;;;;4347931;32;43498;-80
2022/04/29 07:53:09;;;;;;;;;;;12.80;96.50;;;;;;4348026;32;43776;-80
2022/04/29 07:55:41;;;;;;;;;;;12.80;96.30;;;;;;4362372;32;20417;-80
2022/04/29 07:58:18;;;;;;;;;;;12.80;96.30;;;;;;4361496;32;44986;-80
2022/04/29 08:00:50;;;;;;;;;;;12.90;96.30;;;;;;4361655;32;44188;-80
2022/04/29 08:03:39;;;;;;;;;;;12.90;96.20;;;;;;4345447;33;45738;-80
2022/04/29 08:06:09;;;;;;;;;;;12.90;96.30;;;;;;4345280;33;43809;-80
2022/04/29 08:08:39;;;;;;;;;;;12.90;96.20;;;;;;4346720;33;44155;-80
2022/04/29 08:11:12;;;;;;;;;;;12.90;96.20;;;;;;4345344;33;43858;-80
2022/04/29 08:13:51;;;;;;;;;;;12.90;96.30;;;;;;4345389;33;43304;-80
2022/04/29 08:16:44;;;;;;;;;;;12.90;96.40;;;;;;4345043;33;45097;-80
2022/04/29 08:19:20;;;;;;;;;;;12.90;96.60;;;;;;4346132;33;44603;-80
2022/04/29 08:21:55;;;;;;;;;;;12.90;96.60;;;;;;4345989;33;44195;-79
2022/04/29 08:24:31;;;;;;;;;;;12.90;96.50;;;;;;4345396;33;44242;-80
2022/04/29 08:27:06;;;;;;;;;;;12.90;96.60;;;;;;4346843;33;20008;-80
2022/04/29 08:29:42;;;;;;;;;;;12.90;96.60;;;;;;4346437;33;43975;-80
2022/04/29 08:32:12;;;;;;;;;;;13.00;96.80;;;;;;4346416;33;43245;-80
2022/04/29 08:34:47;;;;;;;;;;;13.00;96.60;;;;;;4346194;33;43976;-80
2022/04/29 08:37:17;;;;;;;;;;;13.00;96.60;;;;;;4346187;33;43157;-79
2022/04/29 08:39:53;;;;;;;;;;;13.00;96.50;;;;;;4345849;33;42913;-80
2022/04/29 08:42:24;;;;;;;;;;;13.00;96.50;;;;;;4345157;33;45845;-80
2022/04/29 08:44:56;;;;;;;;;;;13.00;96.60;;;;;;4345707;33;43026;-80
2022/04/29 08:47:30;;;;;;;;;;;13.00;97.00;;;;;;4346005;33;44136;-80
2022/04/29 08:50:06;;;;;;;;;;;13.00;96.90;;;;;;4345706;33;42324;-80
2022/04/29 08:52:41;;;;;;;;;;;13.00;96.70;;;;;;4344903;33;42774;-80
2022/04/29 09:00:54;;;;;;;;;;;13.10;96.70;;;;;;4346031;33;43862;-80
2022/04/29 09:03:24;;;;;;;;;;;13.10;96.90;;;;;;4344184;33;45393;-79
2022/04/29 09:05:54;;;;;;;;;;;13.10;96.90;;;;;;4345250;33;44273;-79
2022/04/29 09:08:27;;;;;;;;;;;13.10;96.90;;;;;;4344623;33;43091;-79
2022/04/29 09:10:56;;;;;;;;;;;13.10;97.00;;;;;;4344946;33;45809;-80
2022/04/29 09:13:37;;;;;;;;;;;13.10;96.90;;;;;;4345811;33;43390;-79
2022/04/29 09:16:14;;;;;;;;;;;13.10;96.90;;;;;;4345743;33;43115;-80
2022/04/29 09:18:51;;;;;;;;;;;13.10;96.80;;;;;;4345663;33;44124;-80
2022/04/29 09:21:28;;;;;;;;;;;13.10;96.80;;;;;;4344680;33;43268;-80
2022/04/29 09:24:10;;;;;;;;;;;13.10;96.70;;;;;;4344419;33;45894;-80
2022/04/29 09:26:40;;;;;;;;;;;13.10;96.70;;;;;;4343990;33;42529;-80
2022/04/29 09:29:13;;;;;;;;;;;13.20;96.60;;;;;;4345322;33;20040;-79
2022/04/29 09:31:54;;;;;;;;;;;13.20;96.70;;;;;;4343523;33;44036;-80
2022/04/29 09:34:50;;;;;;;;;;;13.10;97.00;;;;;;4345614;33;42943;-80
2022/04/29 09:37:26;;;;;;;;;;;13.20;96.70;;;;;;4344359;33;44726;-80
2022/04/29 09:40:07;;;;;;;;;;;13.20;97.10;;;;;;4344350;33;44956;-80
2022/04/29 09:42:40;;;;;;;;;;;13.20;96.70;;;;;;4345558;33;43162;-79
2022/04/29 09:45:18;;;;;;;;;;;13.20;96.80;;;;;;4344646;33;43742;-80
2022/04/29 09:47:55;;;;;;;;;;;13.20;96.70;;;;;;4345217;33;44144;-80
2022/04/29 09:50:25;;;;;;;;;;;13.30;96.70;;;;;;4345345;33;43465;-79
2022/04/29 09:53:00;;;;;;;;;;;13.30;96.50;;;;;;4344116;33;43966;-79
2022/04/29 09:55:30;;;;;;;;;;;13.30;96.50;;;;;;4345231;33;45591;-79
2022/04/29 09:57:59;;;;;;;;;;;13.30;96.50;;;;;;4344761;33;44720;-79
2022/04/29 10:00:31;;;;;;;;;;;13.30;96.50;;;;;;4345722;33;20036;-79
2022/04/29 10:03:04;;;;;;;;;;;13.30;96.40;;;;;;4355836;33;43027;-79
2022/04/29 10:05:39;;;;;;;;;;;13.30;96.30;;;;;;4346457;33;42649;-79
2022/04/29 10:08:09;;;;;;;;;;;13.30;96.20;;;;;;4360205;33;43271;-79
2022/04/29 10:10:44;;;;;;;;;;;13.30;96.30;;;;;;4359659;33;44055;-79
2022/04/29 10:13:12;;;;;;;;;;;13.40;96.10;;;;;;4360049;33;43247;-79
2022/04/29 10:15:51;;;;;;;;;;;13.40;96.20;;;;;;4346481;33;42103;-80
2022/04/29 10:21:16;;;;;;;;;;;13.40;96.20;;;;;;4359806;33;43181;-79
2022/04/29 10:23:49;;;;;;;;;;;13.40;96.20;;;;;;4359975;33;43696;-79
2022/04/29 10:26:25;;;;;;;;;;;13.40;96.20;;;;;;4360012;33;43153;-80
2022/04/29 10:29:00;;;;;;;;;;;13.40;96.10;;;;;;4346565;33;44582;-80
2022/04/29 10:31:30;;;;;;;;;;;13.40;96.10;;;;;;4359876;33;43010;-80
2022/04/29 10:34:16;;;;;;;;;;;13.40;96.10;;;;;;4359505;33;43701;-79
2022/04/29 10:36:54;;;;;;;;;;;13.40;96.10;;;;;;4359535;33;43193;-79
2022/04/29 10:39:29;;;;;;;;;;;13.40;96.00;;;;;;4359702;33;45042;-79
2022/04/29 10:42:03;;;;;;;;;;;13.40;96.30;;;;;;4359655;33;42742;-80
2022/04/29 10:44:34;;;;;;;;;;;13.40;95.90;;;;;;4347854;32;45193;-79
2022/04/29 10:47:20;;;;;;;;;;;13.40;95.90;;;;;;4362319;32;44210;-79
2022/04/29 10:49:55;;;;;;;;;;;13.50;96.00;;;;;;4362611;32;44917;-80
2022/04/29 10:52:28;;;;;;;;;;;13.40;95.90;;;;;;4362040;32;44275;-80
2022/04/29 10:54:58;;;;;;;;;;;13.50;95.90;;;;;;4362078;32;43482;-80
2022/04/29 10:57:41;;;;;;;;;;;13.50;95.90;;;;;;4362530;32;43202;-80
2022/04/29 11:00:18;;;;;;;;;;;13.50;95.90;;;;;;4362442;32;43858;-79
2022/04/29 11:02:54;;;;;;;;;;;13.50;95.90;;;;;;4349461;32;20324;-80
2022/04/29 11:05:39;;;;;;;;;;;13.50;95.90;;;;;;4362120;32;42150;-79
2022/04/29 11:08:15;;;;;;;;;;;13.50;95.90;;;;;;4348894;32;43179;-81
2022/04/29 11:10:55;;;;;;;;;;;13.50;95.90;;;;;;4349168;32;44208;-79
2022/04/29 11:13:47;;;;;;;;;;;13.50;96.00;;;;;;4348902;32;44083;-80
2022/04/29 11:16:20;;;;;;;;;;;13.50;95.90;;;;;;4361797;32;43232;-80
2022/04/29 11:19:09;;;;;;;;;;;13.50;95.90;;;;;;4349076;32;43898;-80
2022/04/29 11:24:42;;;;;;;;;;;13.50;95.90;;;;;;4362210;32;43916;-80
2022/04/29 11:27:26;;;;;;;;;;;13.50;96.00;;;;;;4362079;32;43970;-79
2022/04/29 11:30:05;;;;;;;;;;;13.50;95.90;;;;;;4361923;32;42872;-79
2022/04/29 11:32:37;;;;;;;;;;;13.60;95.90;;;;;;4348616;32;43925;-80
2022/04/29 11:35:08;;;;;;;;;;;13.50;96.00;;;;;;4349067;32;20414;-80
2022/04/29 11:37:46;;;;;;;;;;;13.60;96.00;;;;;;4361402;32;43281;-80
2022/04/29 11:40:19;;;;;;;;;;;13.50;95.80;;;;;;4362026;32;43326;-80
2022/04/29 11:42:55;;;;;;;;;;;13.60;95.50;;;;;;4348355;32;43455;-80
2022/04/29 11:45:30;;;;;;;;;;;13.60;95.50;;;;;;4348321;32;44339;-80
2022/04/29 11:48:06;;;;;;;;;;;13.60;95.60;;;;;;4348214;32;44089;-80
2022/04/29 11:50:36;;;;;;;;;;;13.50;95.30;;;;;;4348755;32;44801;-80
2022/04/29 11:53:09;;;;;;;;;;;13.60;94.90;;;;;;4361744;32;43259;-80
2022/04/29 11:55:48;;;;;;;;;;;13.60;95.30;;;;;;4360780;32;42903;-80
2022/04/29 11:58:21;;;;;;;;;;;13.60;94.90;;;;;;4347797;32;42838;-80
2022/04/29 12:01:06;;;;;;;;;;;13.60;94.80;;;;;;4361675;32;43905;-80
2022/04/29 12:03:39;;;;;;;;;;;13.60;94.80;;;;;;4361369;32;43229;-80
2022/04/29 12:06:11;;;;;;;;;;;13.60;95.00;;;;;;4362612;32;19994;-80
2022/04/29 12:08:50;;;;;;;;;;;13.60;94.90;;;;;;4361452;32;43327;-80
2022/04/29 12:11:27;;;;;;;;;;;13.60;95.10;;;;;;4361453;32;43359;-80
2022/04/29 12:14:15;;;;;;;;;;;13.60;95.10;;;;;;4348231;32;43109;-80
2022/04/29 12:16:45;;;;;;;;;;;13.60;95.20;;;;;;4360811;32;45036;-80
2022/04/29 12:19:21;;;;;;;;;;;13.60;95.30;;;;;;4348184;32;44538;-80
2022/04/29 12:21:55;;;;;;;;;;;13.70;95.20;;;;;;4360856;32;43065;-80
2022/04/29 12:24:38;;;;;;;;;;;13.60;95.10;;;;;;4361487;32;43472;-80
2022/04/29 12:27:12;;;;;;;;;;;13.60;95.30;;;;;;4347898;32;43940;-80
2022/04/29 12:34:48;;;;;;;;;;;13.60;95.30;;;;;;4361190;32;43441;-80
2022/04/29 12:35:56;;;;;;;;;;;13.60;95.30;;;;;;4361091;32;44183;-81
2022/04/29 12:38:32;;;;;;;;;;;13.70;95.40;;;;;;4362030;32;20009;-80
2022/04/29 12:41:19;;;;;;;;;;;13.60;95.30;;;;;;4360906;32;44043;-80
2022/04/29 12:44:09;;;;;;;;;;;13.70;95.40;;;;;;4347989;32;44058;-80
2022/04/29 12:46:44;;;;;;;;;;;13.70;95.40;;;;;;4360575;32;42298;-80
2022/04/29 12:49:21;;;;;;;;;;;13.70;95.40;;;;;;4347480;32;42515;-80
2022/04/29 12:51:59;;;;;;;;;;;13.60;95.40;;;;;;4347538;32;42898;-80
2022/04/29 12:54:39;;;;;;;;;;;13.70;95.30;;;;;;4348735;32;42681;-79
2022/04/29 12:57:08;;;;;;;;;;;13.70;95.40;;;;;;4360910;32;45137;-80
2022/04/29 12:59:47;;;;;;;;;;;13.70;95.40;;;;;;4347251;32;44282;-79
2022/04/29 13:02:21;;;;;;;;;;;13.70;95.50;;;;;;4344473;33;43482;-80
2022/04/29 13:04:54;;;;;;;;;;;13.70;95.40;;;;;;4344775;33;43783;-79
2022/04/29 13:07:32;;;;;;;;;;;13.70;95.40;;;;;;4345239;33;43002;-79
2022/04/29 13:10:05;;;;;;;;;;;13.70;95.40;;;;;;4345412;33;20328;-80
2022/04/29 13:12:40;;;;;;;;;;;13.70;95.50;;;;;;4344299;33;43712;-80
2022/04/29 13:15:15;;;;;;;;;;;13.70;95.50;;;;;;4345626;33;44164;-79
2022/04/29 13:17:48;;;;;;;;;;;13.70;95.50;;;;;;4345669;33;43818;-79
2022/04/29 13:20:25;;;;;;;;;;;13.70;95.50;;;;;;4344368;33;42989;-80
2022/04/29 13:22:58;;;;;;;;;;;13.70;95.50;;;;;;4344548;33;45051;-79
2022/04/29 13:25:28;;;;;;;;;;;13.80;95.50;;;;;;4345659;33;43521;-80
2022/04/29 13:28:01;;;;;;;;;;;13.80;95.50;;;;;;4345430;33;42317;-80
2022/04/29 13:30:40;;;;;;;;;;;13.80;95.60;;;;;;4344106;33;43298;-79
2022/04/29 13:33:11;;;;;;;;;;;13.80;95.50;;;;;;4344486;33;43937;-79
2022/04/29 13:35:46;;;;;;;;;;;13.80;95.50;;;;;;4345418;33;42885;-79
2022/04/29 13:38:19;;;;;;;;;;;13.80;95.50;;;;;;4345459;33;43925;-80
2022/04/29 13:40:55;;;;;;;;;;;13.80;95.60;;;;;;4345037;33;20001;-80
2022/04/29 13:43:34;;;;;;;;;;;13.80;95.50;;;;;;4344551;33;43904;-80
2022/04/29 13:46:36;;;;;;;;;;;13.80;95.60;;;;;;4344424;33;46164;-80
2022/04/29 13:49:09;;;;;;;;;;;13.80;95.60;;;;;;4344176;33;42495;-80
2022/04/29 13:51:53;;;;;;;;;;;13.80;95.60;;;;;;4345488;33;46054;-80
2022/04/29 13:54:28;;;;;;;;;;;13.80;95.60;;;;;;4344381;33;43965;-80
2022/04/29 13:57:06;;;;;;;;;;;13.90;95.60;;;;;;4344754;33;43855;-80
2022/04/29 13:59:36;;;;;;;;;;;13.80;95.60;;;;;;4344323;33;45482;-79
2022/04/29 14:02:03;;;;;;;;;;;13.80;95.60;;;;;;4343500;33;43313;-80
2022/04/29 14:04:36;;;;;;;;;;;13.80;95.60;;;;;;4344364;33;43955;-80
2022/04/29 14:07:06;;;;;;;;;;;13.80;95.60;;;;;;4344173;33;45720;-80
2022/04/29 14:09:36;;;;;;;;;;;13.90;95.60;;;;;;4345075;33;42687;-80
2022/04/29 14:12:11;;;;;;;;;;;13.90;95.70;;;;;;4345723;33;20032;-80
2022/04/29 14:14:39;;;;;;;;;;;13.90;95.60;;;;;;4345299;33;43347;-80
2022/04/29 14:17:07;;;;;;;;;;;13.90;95.70;;;;;;4343524;33;43430;-80
2022/04/29 14:19:34;;;;;;;;;;;13.90;95.70;;;;;;4348093;33;43284;-80
2022/04/29 14:22:10;;;;;;;;;;;13.90;95.70;;;;;;4347585;33;42962;-80
2022/04/29 14:24:43;;;;;;;;;;;13.90;95.70;;;;;;4347192;33;44715;-80
2022/04/29 14:27:14;;;;;;;;;;;13.90;95.60;;;;;;4347941;33;43377;-80
2022/04/29 14:29:48;;;;;;;;;;;13.90;95.60;;;;;;4346485;33;44041;-80
2022/04/29 14:32:26;;;;;;;;;;;13.90;95.60;;;;;;4348062;33;43971;-80
2022/04/29 14:34:58;;;;;;;;;;;13.90;95.60;;;;;;4347872;33;44545;-80
2022/04/29 14:37:26;;;;;;;;;;;13.90;95.50;;;;;;4346877;33;43877;-80
2022/04/29 14:39:56;;;;;;;;;;;13.90;95.50;;;;;;4346604;33;43478;-80
2022/04/29 14:42:28;;;;;;;;;;;13.90;95.60;;;;;;4348697;33;20040;-80
2022/04/29 14:45:08;;;;;;;;;;;13.90;95.30;;;;;;4347775;33;43466;-80
2022/04/29 14:47:41;;;;;;;;;;;13.90;95.40;;;;;;4346898;33;43032;-80
2022/04/29 14:50:17;;;;;;;;;;;14.00;95.50;;;;;;4347911;33;43580;-80
2022/04/29 14:52:45;;;;;;;;;;;13.90;95.50;;;;;;4346739;33;44276;-80
2022/04/29 14:55:12;;;;;;;;;;;13.90;95.30;;;;;;4346540;33;44228;-80
2022/04/29 14:57:47;;;;;;;;;;;13.90;95.40;;;;;;4347543;33;43271;-80
2022/04/29 15:00:20;;;;;;;;;;;13.90;95.40;;;;;;4346454;33;44242;-80
2022/04/29 15:03:01;;;;;;;;;;;13.90;95.40;;;;;;4346074;33;45717;-80
2022/04/29 15:05:42;;;;;;;;;;;13.90;95.50;;;;;;4346569;33;43937;-80
2022/04/29 15:08:23;;;;;;;;;;;13.90;95.60;;;;;;4347356;33;44951;-80
2022/04/29 15:16:32;;;;;;;;;;;13.90;96.00;;;;;;4346871;33;43494;-80
2022/04/29 15:19:02;;;;;;;;;;;13.90;96.20;;;;;;4347070;33;44222;-80
2022/04/29 15:21:34;;;;;;;;;;;13.90;96.40;;;;;;4346243;33;43672;-80
2022/04/29 15:24:01;;;;;;;;;;;14.00;96.60;;;;;;4346841;33;43849;-80
2022/04/29 15:26:33;;;;;;;;;;;13.90;96.10;;;;;;4346744;33;43261;-80
2022/04/29 15:29:06;;;;;;;;;;;13.90;96.50;;;;;;4346707;32;44282;-80